sensor_id;sensor_type;location;lat;lon;timestamp;temperature;humidity
26541;DHT22;14206;50.202;10.948;2022-12-11T00:01:17;-0.80;96.60
26541;DHT22;14206;50.202;10.948;2022-12-11T00:03:45;-0.70;96.60
26541;DHT22;14206;50.202;10.948;2022-12-11T00:10:04;-0.60;96.60
26541;DHT22;14206;50.202;10.948;2022-12-11T00:12:37;-0.60;96.60
26541;DHT22;14206;50.202;10.948;2022-12-11T00:15:24;-0.50;96.60
26541;DHT22;14206;50.202;10.948;2022-12-11T00:17:51;-0.50;96.60
26541;DHT22;14206;50.202;10.948;2022-12-11T00:20:18;-0.50;96.60
26541;DHT22;14206;50.202;10.948;2022-12-11T00:22:45;-0.50;96.60
26541;DHT22;14206;50.202;10.948;2022-12-11T00:25:12;-0.50;96.60
26541;DHT22;14206;50.202;10.948;2022-12-11T00:27:39;-0.50;96.60
26541;DHT22;14206;50.202;10.948;2022-12-11T00:30:06;-0.60;96.60
26541;DHT22;14206;50.202;10.948;2022-12-11T00:32:33;-0.50;96.60
26541;DHT22;14206;50.202;10.948;2022-12-11T00:35:03;-0.50;96.60
26541;DHT22;14206;50.202;10.948;2022-12-11T00:37:30;-0.40;96.60
26541;DHT22;14206;50.202;10.948;2022-12-11T00:39:57;-0.40;96.60
26541;DHT22;14206;50.202;10.948;2022-12-11T00:42:24;-0.40;96.60
26541;DHT22;14206;50.202;10.948;2022-12-11T00:44:51;-0.50;96.60
26541;DHT22;14206;50.202;10.948;2022-12-11T00:47:19;-0.40;96.60
26541;DHT22;14206;50.202;10.948;2022-12-11T00:49:46;-0.40;96.60
26541;DHT22;14206;50.202;10.948;2022-12-11T00:52:16;-0.40;96.60
26541;DHT22;14206;50.202;10.948;2022-12-11T00:54:44;-0.40;96.60
26541;DHT22;14206;50.202;10.948;2022-12-11T00:57:11;-0.30;96.60
26541;DHT22;14206;50.202;10.948;2022-12-11T00:59:38;-0.30;96.60
26541;DHT22;14206;50.202;10.948;2022-12-11T01:02:04;-0.30;96.60
26541;DHT22;14206;50.202;10.948;2022-12-11T01:04:34;-0.30;96.60
26541;DHT22;14206;50.202;10.948;2022-12-11T01:07:01;-0.30;96.60
26541;DHT22;14206;50.202;10.948;2022-12-11T01:09:28;-0.30;96.60
26541;DHT22;14206;50.202;10.948;2022-12-11T01:12:13;-0.30;96.60
26541;DHT22;14206;50.202;10.948;2022-12-11T01:14:40;-0.30;96.60
26541;DHT22;14206;50.202;10.948;2022-12-11T01:17:07;-0.20;96.60
26541;DHT22;14206;50.202;10.948;2022-12-11T01:19:34;-0.10;96.60
26541;DHT22;14206;50.202;10.948;2022-12-11T01:22:01;0.00;96.60
26541;DHT22;14206;50.202;10.948;2022-12-11T01:24:27;0.00;96.60
26541;DHT22;14206;50.202;10.948;2022-12-11T01:26:54;0.10;96.60
26541;DHT22;14206;50.202;10.948;2022-12-11T01:29:24;0.10;96.60
26541;DHT22;14206;50.202;10.948;2022-12-11T01:32:12;0.10;96.60
26541;DHT22;14206;50.202;10.948;2022-12-11T01:34:38;0.10;96.60
26541;DHT22;14206;50.202;10.948;2022-12-11T01:37:05;0.20;96.60
26541;DHT22;14206;50.202;10.948;2022-12-11T01:39:32;0.20;96.60
26541;DHT22;14206;50.202;10.948;2022-12-11T01:42:00;0.20;96.60
26541;DHT22;14206;50.202;10.948;2022-12-11T01:46:56;0.20;96.60
26541;DHT22;14206;50.202;10.948;2022-12-11T01:49:26;0.20;96.60
26541;DHT22;14206;50.202;10.948;2022-12-11T01:52:00;0.20;96.60
26541;DHT22;14206;50.202;10.948;2022-12-11T01:54:29;0.20;96.60
26541;DHT22;14206;50.202;10.948;2022-12-11T01:56:59;0.20;96.60
26541;DHT22;14206;50.202;10.948;2022-12-11T01:59:28;0.20;96.60
26541;DHT22;14206;50.202;10.948;2022-12-11T02:04:37;0.20;96.60
26541;DHT22;14206;50.202;10.948;2022-12-11T02:07:05;0.20;96.60
26541;DHT22;14206;50.202;10.948;2022-12-11T02:09:34;0.30;96.60
26541;DHT22;14206;50.202;10.948;2022-12-11T02:12:23;0.30;96.60
26541;DHT22;14206;50.202;10.948;2022-12-11T02:15:22;0.30;96.60
26541;DHT22;14206;50.202;10.948;2022-12-11T02:27:28;-0.30;96.60
26541;DHT22;14206;50.202;10.948;2022-12-11T02:35:22;-0.60;96.60
26541;DHT22;14206;50.202;10.948;2022-12-11T02:37:56;-0.70;96.60
26541;DHT22;14206;50.202;10.948;2022-12-11T02:40:30;-0.80;96.60
26541;DHT22;14206;50.202;10.948;2022-12-11T02:43:19;-0.80;96.60
26541;DHT22;14206;50.202;10.948;2022-12-11T02:45:47;-0.80;96.60
26541;DHT22;14206;50.202;10.948;2022-12-11T02:48:16;-0.70;96.60
26541;DHT22;14206;50.202;10.948;2022-12-11T02:51:16;-0.70;96.60
26541;DHT22;14206;50.202;10.948;2022-12-11T02:53:44;-0.60;96.60
26541;DHT22;14206;50.202;10.948;2022-12-11T02:56:19;-0.60;96.60
26541;DHT22;14206;50.202;10.948;2022-12-11T02:58:51;-0.60;96.60
26541;DHT22;14206;50.202;10.948;2022-12-11T03:01:25;-0.70;96.60
26541;DHT22;14206;50.202;10.948;2022-12-11T03:03:53;-0.70;96.60
26541;DHT22;14206;50.202;10.948;2022-12-11T03:06:23;-0.80;96.60
26541;DHT22;14206;50.202;10.948;2022-12-11T03:08:50;-0.80;96.60
26541;DHT22;14206;50.202;10.948;2022-12-11T03:11:17;-0.80;96.60
26541;DHT22;14206;50.202;10.948;2022-12-11T03:13:44;-0.80;96.60
26541;DHT22;14206;50.202;10.948;2022-12-11T03:21:55;-0.90;96.60
26541;DHT22;14206;50.202;10.948;2022-12-11T03:30:03;-0.80;96.60
26541;DHT22;14206;50.202;10.948;2022-12-11T03:32:48;-0.80;96.60
26541;DHT22;14206;50.202;10.948;2022-12-11T03:35:26;-0.90;96.60
26541;DHT22;14206;50.202;10.948;2022-12-11T03:37:57;-1.00;96.60
26541;DHT22;14206;50.202;10.948;2022-12-11T03:40:27;-1.10;96.60
26541;DHT22;14206;50.202;10.948;2022-12-11T03:42:56;-1.10;96.60
26541;DHT22;14206;50.202;10.948;2022-12-11T03:45:25;-1.10;96.60
26541;DHT22;14206;50.202;10.948;2022-12-11T03:47:57;-1.00;96.60
26541;DHT22;14206;50.202;10.948;2022-12-11T03:50:27;-1.00;96.60
26541;DHT22;14206;50.202;10.948;2022-12-11T03:52:57;-0.90;96.60
26541;DHT22;14206;50.202;10.948;2022-12-11T03:55:24;-0.90;96.60
26541;DHT22;14206;50.202;10.948;2022-12-11T03:58:12;-0.90;96.60
26541;DHT22;14206;50.202;10.948;2022-12-11T04:00:39;-0.80;96.60
26541;DHT22;14206;50.202;10.948;2022-12-11T04:03:06;-0.80;96.60
26541;DHT22;14206;50.202;10.948;2022-12-11T04:05:47;-0.80;96.60
26541;DHT22;14206;50.202;10.948;2022-12-11T04:08:15;-0.80;96.60
26541;DHT22;14206;50.202;10.948;2022-12-11T04:10:42;-0.70;96.60
26541;DHT22;14206;50.202;10.948;2022-12-11T04:13:09;-0.60;96.60
26541;DHT22;14206;50.202;10.948;2022-12-11T04:15:37;-0.60;96.60
26541;DHT22;14206;50.202;10.948;2022-12-11T04:18:05;-0.60;96.60
26541;DHT22;14206;50.202;10.948;2022-12-11T04:20:54;-0.60;96.60
26541;DHT22;14206;50.202;10.948;2022-12-11T04:23:40;-0.60;96.60
26541;DHT22;14206;50.202;10.948;2022-12-11T04:26:26;-0.60;96.60
26541;DHT22;14206;50.202;10.948;2022-12-11T04:28:56;-0.50;96.60
26541;DHT22;14206;50.202;10.948;2022-12-11T04:31:23;-0.50;96.60
26541;DHT22;14206;50.202;10.948;2022-12-11T04:33:50;-0.40;96.60
26541;DHT22;14206;50.202;10.948;2022-12-11T04:36:17;-0.30;96.60
26541;DHT22;14206;50.202;10.948;2022-12-11T04:38:43;-0.30;96.60
26541;DHT22;14206;50.202;10.948;2022-12-11T04:41:12;-0.20;96.60
26541;DHT22;14206;50.202;10.948;2022-12-11T04:43:39;-0.20;96.60
26541;DHT22;14206;50.202;10.948;2022-12-11T04:46:12;-0.10;96.60
26541;DHT22;14206;50.202;10.948;2022-12-11T04:48:40;-0.10;96.60
26541;DHT22;14206;50.202;10.948;2022-12-11T04:51:08;-0.10;96.60
26541;DHT22;14206;50.202;10.948;2022-12-11T04:53:38;-0.10;96.60
26541;DHT22;14206;50.202;10.948;2022-12-11T04:56:13;-0.10;96.60
26541;DHT22;14206;50.202;10.948;2022-12-11T04:58:42;-0.10;96.60
26541;DHT22;14206;50.202;10.948;2022-12-11T05:01:18;-0.10;96.60
26541;DHT22;14206;50.202;10.948;2022-12-11T05:03:45;-0.20;96.60
26541;DHT22;14206;50.202;10.948;2022-12-11T05:06:13;-0.20;96.60
26541;DHT22;14206;50.202;10.948;2022-12-11T05:08:41;-0.10;96.60
26541;DHT22;14206;50.202;10.948;2022-12-11T05:11:13;-0.20;96.60
26541;DHT22;14206;50.202;10.948;2022-12-11T05:13:41;-0.20;96.60
26541;DHT22;14206;50.202;10.948;2022-12-11T05:16:10;-0.20;96.60
26541;DHT22;14206;50.202;10.948;2022-12-11T05:18:37;-0.10;96.60
26541;DHT22;14206;50.202;10.948;2022-12-11T05:21:13;-0.20;96.60
26541;DHT22;14206;50.202;10.948;2022-12-11T05:23:40;-0.20;96.60
26541;DHT22;14206;50.202;10.948;2022-12-11T05:26:12;-0.20;96.60
26541;DHT22;14206;50.202;10.948;2022-12-11T05:28:39;-0.10;96.60
26541;DHT22;14206;50.202;10.948;2022-12-11T05:31:13;-0.10;96.60
26541;DHT22;14206;50.202;10.948;2022-12-11T05:33:40;-0.20;96.60
26541;DHT22;14206;50.202;10.948;2022-12-11T05:36:08;-0.20;96.60
26541;DHT22;14206;50.202;10.948;2022-12-11T05:38:35;-0.30;96.60
26541;DHT22;14206;50.202;10.948;2022-12-11T05:41:04;-0.30;96.60
26541;DHT22;14206;50.202;10.948;2022-12-11T05:43:34;-0.30;96.60
26541;DHT22;14206;50.202;10.948;2022-12-11T05:46:12;-0.30;96.60
26541;DHT22;14206;50.202;10.948;2022-12-11T05:48:40;-0.30;96.60
26541;DHT22;14206;50.202;10.948;2022-12-11T05:51:09;-0.30;96.60
26541;DHT22;14206;50.202;10.948;2022-12-11T05:53:37;-0.30;96.60
26541;DHT22;14206;50.202;10.948;2022-12-11T05:56:18;-0.30;96.60
26541;DHT22;14206;50.202;10.948;2022-12-11T05:58:46;-0.20;96.60
26541;DHT22;14206;50.202;10.948;2022-12-11T06:01:25;-0.30;96.60
26541;DHT22;14206;50.202;10.948;2022-12-11T06:03:55;-0.30;96.60
26541;DHT22;14206;50.202;10.948;2022-12-11T06:06:23;-0.40;96.60
26541;DHT22;14206;50.202;10.948;2022-12-11T06:08:54;-0.30;96.60
26541;DHT22;14206;50.202;10.948;2022-12-11T06:11:22;-0.30;96.60
26541;DHT22;14206;50.202;10.948;2022-12-11T06:13:50;-0.30;96.60
26541;DHT22;14206;50.202;10.948;2022-12-11T06:16:18;-0.30;96.60
26541;DHT22;14206;50.202;10.948;2022-12-11T06:18:45;-0.30;96.60
26541;DHT22;14206;50.202;10.948;2022-12-11T06:21:14;-0.30;96.60
26541;DHT22;14206;50.202;10.948;2022-12-11T06:23:42;-0.30;96.60
26541;DHT22;14206;50.202;10.948;2022-12-11T06:26:10;-0.40;96.60
26541;DHT22;14206;50.202;10.948;2022-12-11T06:28:37;-0.40;96.60
26541;DHT22;14206;50.202;10.948;2022-12-11T06:31:04;-0.50;96.60
26541;DHT22;14206;50.202;10.948;2022-12-11T06:33:31;-0.50;96.60
26541;DHT22;14206;50.202;10.948;2022-12-11T06:36:03;-0.50;96.60
26541;DHT22;14206;50.202;10.948;2022-12-11T06:38:30;-0.40;96.60
26541;DHT22;14206;50.202;10.948;2022-12-11T06:40:58;-0.40;96.60
26541;DHT22;14206;50.202;10.948;2022-12-11T06:43:26;-0.50;96.60
26541;DHT22;14206;50.202;10.948;2022-12-11T06:45:52;-0.50;96.60
26541;DHT22;14206;50.202;10.948;2022-12-11T06:48:24;-0.60;96.60
26541;DHT22;14206;50.202;10.948;2022-12-11T06:50:51;-0.60;96.60
26541;DHT22;14206;50.202;10.948;2022-12-11T06:53:18;-0.70;96.60
26541;DHT22;14206;50.202;10.948;2022-12-11T06:55:45;-0.70;96.60
26541;DHT22;14206;50.202;10.948;2022-12-11T06:58:11;-0.70;96.60
26541;DHT22;14206;50.202;10.948;2022-12-11T07:00:38;-0.80;96.60
26541;DHT22;14206;50.202;10.948;2022-12-11T07:03:05;-0.70;96.60
26541;DHT22;14206;50.202;10.948;2022-12-11T07:05:33;-0.70;96.60
26541;DHT22;14206;50.202;10.948;2022-12-11T07:08:00;-0.70;96.60
26541;DHT22;14206;50.202;10.948;2022-12-11T07:10:27;-0.70;96.60
26541;DHT22;14206;50.202;10.948;2022-12-11T07:12:54;-0.70;96.60
26541;DHT22;14206;50.202;10.948;2022-12-11T07:15:21;-0.70;96.60
26541;DHT22;14206;50.202;10.948;2022-12-11T07:17:47;-0.70;96.60
26541;DHT22;14206;50.202;10.948;2022-12-11T07:20:14;-0.70;96.60
26541;DHT22;14206;50.202;10.948;2022-12-11T07:22:41;-0.70;96.60
26541;DHT22;14206;50.202;10.948;2022-12-11T07:25:12;-0.70;96.60
26541;DHT22;14206;50.202;10.948;2022-12-11T07:27:39;-0.70;96.60
26541;DHT22;14206;50.202;10.948;2022-12-11T07:30:08;-0.80;96.60
26541;DHT22;14206;50.202;10.948;2022-12-11T07:32:35;-0.80;96.60
26541;DHT22;14206;50.202;10.948;2022-12-11T07:35:02;-0.80;96.60
26541;DHT22;14206;50.202;10.948;2022-12-11T07:37:29;-0.80;96.60
26541;DHT22;14206;50.202;10.948;2022-12-11T07:39:56;-0.80;96.60
26541;DHT22;14206;50.202;10.948;2022-12-11T07:42:29;-0.80;96.60
26541;DHT22;14206;50.202;10.948;2022-12-11T07:45:11;-0.80;96.60
26541;DHT22;14206;50.202;10.948;2022-12-11T07:47:38;-0.80;96.60
26541;DHT22;14206;50.202;10.948;2022-12-11T07:50:05;-0.80;96.60
26541;DHT22;14206;50.202;10.948;2022-12-11T07:52:33;-0.80;96.60
26541;DHT22;14206;50.202;10.948;2022-12-11T07:55:00;-0.70;96.60
26541;DHT22;14206;50.202;10.948;2022-12-11T07:57:28;-0.60;96.60
26541;DHT22;14206;50.202;10.948;2022-12-11T07:59:55;-0.60;96.60
26541;DHT22;14206;50.202;10.948;2022-12-11T08:02:21;-0.50;96.60
26541;DHT22;14206;50.202;10.948;2022-12-11T08:04:48;-0.50;96.60
26541;DHT22;14206;50.202;10.948;2022-12-11T08:07:15;-0.40;96.60
26541;DHT22;14206;50.202;10.948;2022-12-11T08:09:42;-0.40;96.60
26541;DHT22;14206;50.202;10.948;2022-12-11T08:12:09;-0.20;96.60
26541;DHT22;14206;50.202;10.948;2022-12-11T08:14:37;-0.10;96.60
26541;DHT22;14206;50.202;10.948;2022-12-11T08:17:04;-0.10;96.60
26541;DHT22;14206;50.202;10.948;2022-12-11T08:19:31;0.00;96.10
26541;DHT22;14206;50.202;10.948;2022-12-11T08:21:57;0.10;96.10
26541;DHT22;14206;50.202;10.948;2022-12-11T08:24:24;0.20;95.50
26541;DHT22;14206;50.202;10.948;2022-12-11T08:26:51;0.20;95.00
26541;DHT22;14206;50.202;10.948;2022-12-11T08:29:18;0.30;94.80
26541;DHT22;14206;50.202;10.948;2022-12-11T08:31:45;0.30;94.00
26541;DHT22;14206;50.202;10.948;2022-12-11T08:34:12;0.30;94.60
26541;DHT22;14206;50.202;10.948;2022-12-11T08:36:39;0.30;94.20
26541;DHT22;14206;50.202;10.948;2022-12-11T08:39:06;0.30;93.70
26541;DHT22;14206;50.202;10.948;2022-12-11T08:41:33;0.30;93.30
26541;DHT22;14206;50.202;10.948;2022-12-11T08:44:00;0.30;93.10
26541;DHT22;14206;50.202;10.948;2022-12-11T08:46:29;0.30;93.30
26541;DHT22;14206;50.202;10.948;2022-12-11T08:48:57;0.30;92.30
26541;DHT22;14206;50.202;10.948;2022-12-11T08:51:30;0.40;92.40
26541;DHT22;14206;50.202;10.948;2022-12-11T08:53:59;0.40;92.60
26541;DHT22;14206;50.202;10.948;2022-12-11T08:56:27;0.40;92.40
26541;DHT22;14206;50.202;10.948;2022-12-11T08:58:54;0.50;92.50
26541;DHT22;14206;50.202;10.948;2022-12-11T09:01:24;0.50;91.80
26541;DHT22;14206;50.202;10.948;2022-12-11T09:03:53;0.50;92.00
26541;DHT22;14206;50.202;10.948;2022-12-11T09:06:22;0.50;91.90
26541;DHT22;14206;50.202;10.948;2022-12-11T09:08:50;0.50;91.80
26541;DHT22;14206;50.202;10.948;2022-12-11T09:11:24;0.50;91.60
26541;DHT22;14206;50.202;10.948;2022-12-11T09:13:52;0.50;91.10
26541;DHT22;14206;50.202;10.948;2022-12-11T09:16:23;0.50;91.10
26541;DHT22;14206;50.202;10.948;2022-12-11T09:18:51;0.60;90.90
26541;DHT22;14206;50.202;10.948;2022-12-11T09:21:21;0.60;90.90
26541;DHT22;14206;50.202;10.948;2022-12-11T09:23:52;0.60;90.80
26541;DHT22;14206;50.202;10.948;2022-12-11T09:26:20;0.70;90.90
26541;DHT22;14206;50.202;10.948;2022-12-11T09:28:48;0.80;90.70
26541;DHT22;14206;50.202;10.948;2022-12-11T09:31:30;0.90;89.90
26541;DHT22;14206;50.202;10.948;2022-12-11T09:34:00;0.90;90.30
26541;DHT22;14206;50.202;10.948;2022-12-11T09:36:28;1.10;90.30
26541;DHT22;14206;50.202;10.948;2022-12-11T09:39:03;1.10;90.10
26541;DHT22;14206;50.202;10.948;2022-12-11T09:47:35;1.30;89.80
26541;DHT22;14206;50.202;10.948;2022-12-11T09:55:51;1.30;89.20
26541;DHT22;14206;50.202;10.948;2022-12-11T10:00:54;1.50;88.80
26541;DHT22;14206;50.202;10.948;2022-12-11T10:06:27;1.60;88.60
26541;DHT22;14206;50.202;10.948;2022-12-11T10:09:02;1.60;89.30
26541;DHT22;14206;50.202;10.948;2022-12-11T10:12:17;1.70;89.00
26541;DHT22;14206;50.202;10.948;2022-12-11T10:14:58;1.70;88.40
26541;DHT22;14206;50.202;10.948;2022-12-11T10:17:32;1.60;87.90
26541;DHT22;14206;50.202;10.948;2022-12-11T10:20:13;1.60;88.50
26541;DHT22;14206;50.202;10.948;2022-12-11T10:22:43;1.60;88.40
26541;DHT22;14206;50.202;10.948;2022-12-11T10:25:28;1.70;88.40
26541;DHT22;14206;50.202;10.948;2022-12-11T10:27:57;1.80;88.20
26541;DHT22;14206;50.202;10.948;2022-12-11T10:30:30;1.90;87.80
26541;DHT22;14206;50.202;10.948;2022-12-11T10:33:20;2.00;86.40
26541;DHT22;14206;50.202;10.948;2022-12-11T10:35:55;2.10;87.20
26541;DHT22;14206;50.202;10.948;2022-12-11T10:38:31;2.20;86.60
26541;DHT22;14206;50.202;10.948;2022-12-11T10:41:10;2.30;86.70
26541;DHT22;14206;50.202;10.948;2022-12-11T10:43:42;2.30;87.00
26541;DHT22;14206;50.202;10.948;2022-12-11T10:51:13;2.30;85.50
26541;DHT22;14206;50.202;10.948;2022-12-11T10:53:41;2.20;86.20
26541;DHT22;14206;50.202;10.948;2022-12-11T10:56:10;2.20;87.30
26541;DHT22;14206;50.202;10.948;2022-12-11T10:58:47;2.30;86.30
26541;DHT22;14206;50.202;10.948;2022-12-11T11:01:18;2.40;86.10
26541;DHT22;14206;50.202;10.948;2022-12-11T11:03:58;2.40;85.40
26541;DHT22;14206;50.202;10.948;2022-12-11T11:06:29;2.40;84.90
26541;DHT22;14206;50.202;10.948;2022-12-11T11:08:58;2.40;85.30
26541;DHT22;14206;50.202;10.948;2022-12-11T11:11:32;2.50;85.50
26541;DHT22;14206;50.202;10.948;2022-12-11T11:14:15;2.60;84.80
26541;DHT22;14206;50.202;10.948;2022-12-11T11:16:45;2.60;84.60
26541;DHT22;14206;50.202;10.948;2022-12-11T11:19:35;2.60;85.50
26541;DHT22;14206;50.202;10.948;2022-12-11T11:22:07;2.60;84.80
26541;DHT22;14206;50.202;10.948;2022-12-11T11:24:40;2.60;86.00
26541;DHT22;14206;50.202;10.948;2022-12-11T11:27:13;2.60;84.80
26541;DHT22;14206;50.202;10.948;2022-12-11T11:29:45;2.70;84.80
26541;DHT22;14206;50.202;10.948;2022-12-11T11:32:37;2.80;84.00
26541;DHT22;14206;50.202;10.948;2022-12-11T11:37:43;2.80;83.00
26541;DHT22;14206;50.202;10.948;2022-12-11T11:43:33;2.70;83.90
26541;DHT22;14206;50.202;10.948;2022-12-11T11:46:22;2.70;83.70
26541;DHT22;14206;50.202;10.948;2022-12-11T11:51:42;2.50;84.30
26541;DHT22;14206;50.202;10.948;2022-12-11T11:54:32;2.40;84.00
26541;DHT22;14206;50.202;10.948;2022-12-11T11:57:18;2.50;84.00
26541;DHT22;14206;50.202;10.948;2022-12-11T11:59:51;2.60;84.00
26541;DHT22;14206;50.202;10.948;2022-12-11T12:02:19;2.60;84.00
26541;DHT22;14206;50.202;10.948;2022-12-11T12:04:46;2.70;83.70
26541;DHT22;14206;50.202;10.948;2022-12-11T12:10:15;2.70;82.30
26541;DHT22;14206;50.202;10.948;2022-12-11T12:13:05;2.70;82.40
26541;DHT22;14206;50.202;10.948;2022-12-11T12:16:00;2.70;83.30
26541;DHT22;14206;50.202;10.948;2022-12-11T12:18:47;2.70;82.80
26541;DHT22;14206;50.202;10.948;2022-12-11T12:21:22;2.60;82.40
26541;DHT22;14206;50.202;10.948;2022-12-11T12:24:11;2.60;81.80
26541;DHT22;14206;50.202;10.948;2022-12-11T12:26:51;2.70;82.80
26541;DHT22;14206;50.202;10.948;2022-12-11T12:32:25;2.70;82.10
26541;DHT22;14206;50.202;10.948;2022-12-11T12:37:56;2.70;80.90
26541;DHT22;14206;50.202;10.948;2022-12-11T12:40:27;2.70;80.40
26541;DHT22;14206;50.202;10.948;2022-12-11T12:48:22;2.60;81.30
26541;DHT22;14206;50.202;10.948;2022-12-11T12:50:50;2.60;80.30
26541;DHT22;14206;50.202;10.948;2022-12-11T12:53:24;2.60;81.00
26541;DHT22;14206;50.202;10.948;2022-12-11T12:55:53;2.60;80.00
26541;DHT22;14206;50.202;10.948;2022-12-11T12:58:27;2.60;79.80
26541;DHT22;14206;50.202;10.948;2022-12-11T13:01:09;2.50;80.80
26541;DHT22;14206;50.202;10.948;2022-12-11T13:03:58;2.50;80.30
26541;DHT22;14206;50.202;10.948;2022-12-11T13:06:35;2.40;80.70
26541;DHT22;14206;50.202;10.948;2022-12-11T13:11:42;2.40;80.30
26541;DHT22;14206;50.202;10.948;2022-12-11T13:16:44;2.40;80.00
26541;DHT22;14206;50.202;10.948;2022-12-11T13:24:32;2.30;79.70
26541;DHT22;14206;50.202;10.948;2022-12-11T13:27:11;2.30;80.70
26541;DHT22;14206;50.202;10.948;2022-12-11T13:29:47;2.30;80.20
26541;DHT22;14206;50.202;10.948;2022-12-11T13:34:54;2.30;78.80
26541;DHT22;14206;50.202;10.948;2022-12-11T13:37:32;2.20;79.90
26541;DHT22;14206;50.202;10.948;2022-12-11T13:40:02;2.20;78.90
26541;DHT22;14206;50.202;10.948;2022-12-11T13:42:34;2.10;79.60
26541;DHT22;14206;50.202;10.948;2022-12-11T13:45:18;2.00;79.40
26541;DHT22;14206;50.202;10.948;2022-12-11T13:47:47;2.00;79.60
26541;DHT22;14206;50.202;10.948;2022-12-11T13:50:23;2.00;80.20
26541;DHT22;14206;50.202;10.948;2022-12-11T13:52:55;1.90;80.80
26541;DHT22;14206;50.202;10.948;2022-12-11T13:55:32;1.90;80.30
26541;DHT22;14206;50.202;10.948;2022-12-11T13:57:59;1.90;81.40
26541;DHT22;14206;50.202;10.948;2022-12-11T14:00:28;1.90;80.80
26541;DHT22;14206;50.202;10.948;2022-12-11T14:03:02;1.90;80.90
26541;DHT22;14206;50.202;10.948;2022-12-11T14:05:31;1.90;81.50
26541;DHT22;14206;50.202;10.948;2022-12-11T14:08:04;1.80;81.00
26541;DHT22;14206;50.202;10.948;2022-12-11T14:10:32;1.70;81.50
26541;DHT22;14206;50.202;10.948;2022-12-11T14:13:03;1.70;81.60
26541;DHT22;14206;50.202;10.948;2022-12-11T14:15:32;1.50;80.20
26541;DHT22;14206;50.202;10.948;2022-12-11T14:18:01;1.40;81.20
26541;DHT22;14206;50.202;10.948;2022-12-11T14:20:31;1.30;81.50
26541;DHT22;14206;50.202;10.948;2022-12-11T14:23:07;1.20;82.10
26541;DHT22;14206;50.202;10.948;2022-12-11T14:25:33;1.20;81.90
26541;DHT22;14206;50.202;10.948;2022-12-11T14:28:00;1.10;81.50
26541;DHT22;14206;50.202;10.948;2022-12-11T14:30:30;1.10;81.30
26541;DHT22;14206;50.202;10.948;2022-12-11T14:33:00;1.10;81.90
26541;DHT22;14206;50.202;10.948;2022-12-11T14:35:34;1.00;80.70
26541;DHT22;14206;50.202;10.948;2022-12-11T14:38:12;1.00;80.90
26541;DHT22;14206;50.202;10.948;2022-12-11T14:40:46;0.90;80.40
26541;DHT22;14206;50.202;10.948;2022-12-11T14:43:41;0.90;80.40
26541;DHT22;14206;50.202;10.948;2022-12-11T14:46:22;0.90;81.10
26541;DHT22;14206;50.202;10.948;2022-12-11T14:48:56;0.90;81.40
26541;DHT22;14206;50.202;10.948;2022-12-11T14:51:29;0.90;80.90
26541;DHT22;14206;50.202;10.948;2022-12-11T14:53:58;0.90;80.10
26541;DHT22;14206;50.202;10.948;2022-12-11T14:56:28;0.80;80.10
26541;DHT22;14206;50.202;10.948;2022-12-11T14:58:58;0.80;80.40
26541;DHT22;14206;50.202;10.948;2022-12-11T15:01:34;0.80;80.10
26541;DHT22;14206;50.202;10.948;2022-12-11T15:06:47;0.80;80.20
26541;DHT22;14206;50.202;10.948;2022-12-11T15:09:24;0.80;81.10
26541;DHT22;14206;50.202;10.948;2022-12-11T15:11:53;0.80;81.50
26541;DHT22;14206;50.202;10.948;2022-12-11T15:14:21;0.80;80.40
26541;DHT22;14206;50.202;10.948;2022-12-11T15:16:51;0.80;79.70
26541;DHT22;14206;50.202;10.948;2022-12-11T15:19:29;0.70;80.00
26541;DHT22;14206;50.202;10.948;2022-12-11T15:22:02;0.70;80.80
26541;DHT22;14206;50.202;10.948;2022-12-11T15:24:39;0.70;81.20
26541;DHT22;14206;50.202;10.948;2022-12-11T15:27:38;0.70;81.60
26541;DHT22;14206;50.202;10.948;2022-12-11T15:30:26;0.70;81.30
26541;DHT22;14206;50.202;10.948;2022-12-11T15:33:16;0.70;81.20
26541;DHT22;14206;50.202;10.948;2022-12-11T15:36:04;0.70;81.50
26541;DHT22;14206;50.202;10.948;2022-12-11T15:38:35;0.70;80.60
26541;DHT22;14206;50.202;10.948;2022-12-11T15:41:03;0.60;79.00
26541;DHT22;14206;50.202;10.948;2022-12-11T15:43:34;0.50;79.20
26541;DHT22;14206;50.202;10.948;2022-12-11T15:46:08;0.50;79.50
26541;DHT22;14206;50.202;10.948;2022-12-11T15:48:35;0.50;79.30
26541;DHT22;14206;50.202;10.948;2022-12-11T15:51:02;0.50;79.00
26541;DHT22;14206;50.202;10.948;2022-12-11T15:53:29;0.50;80.30
26541;DHT22;14206;50.202;10.948;2022-12-11T15:55:57;0.50;80.50
26541;DHT22;14206;50.202;10.948;2022-12-11T15:58:24;0.50;80.20
26541;DHT22;14206;50.202;10.948;2022-12-11T16:00:53;0.60;80.60
26541;DHT22;14206;50.202;10.948;2022-12-11T16:03:21;0.60;80.30
26541;DHT22;14206;50.202;10.948;2022-12-11T16:05:50;0.60;80.40
26541;DHT22;14206;50.202;10.948;2022-12-11T16:08:19;0.70;80.30
26541;DHT22;14206;50.202;10.948;2022-12-11T16:10:47;0.70;80.30
26541;DHT22;14206;50.202;10.948;2022-12-11T16:13:21;0.70;79.70
26541;DHT22;14206;50.202;10.948;2022-12-11T16:15:49;0.80;79.60
26541;DHT22;14206;50.202;10.948;2022-12-11T16:18:19;0.80;79.90
26541;DHT22;14206;50.202;10.948;2022-12-11T16:20:48;0.80;80.30
26541;DHT22;14206;50.202;10.948;2022-12-11T16:23:15;0.80;79.50
26541;DHT22;14206;50.202;10.948;2022-12-11T16:25:44;0.80;79.70
26541;DHT22;14206;50.202;10.948;2022-12-11T16:28:15;0.90;80.20
26541;DHT22;14206;50.202;10.948;2022-12-11T16:30:43;0.90;79.90
26541;DHT22;14206;50.202;10.948;2022-12-11T16:33:11;0.90;79.90
26541;DHT22;14206;50.202;10.948;2022-12-11T16:35:40;0.90;80.50
26541;DHT22;14206;50.202;10.948;2022-12-11T16:38:09;0.90;80.30
26541;DHT22;14206;50.202;10.948;2022-12-11T16:40:36;0.70;81.40
26541;DHT22;14206;50.202;10.948;2022-12-11T16:43:04;0.60;81.70
26541;DHT22;14206;50.202;10.948;2022-12-11T16:45:32;0.60;81.70
26541;DHT22;14206;50.202;10.948;2022-12-11T16:48:03;0.70;81.90
26541;DHT22;14206;50.202;10.948;2022-12-11T16:50:30;0.70;81.30
26541;DHT22;14206;50.202;10.948;2022-12-11T16:52:58;0.70;81.00
26541;DHT22;14206;50.202;10.948;2022-12-11T16:55:24;0.70;81.40
26541;DHT22;14206;50.202;10.948;2022-12-11T16:57:51;0.70;82.00
26541;DHT22;14206;50.202;10.948;2022-12-11T17:00:18;0.70;81.00
26541;DHT22;14206;50.202;10.948;2022-12-11T17:02:46;0.70;82.30
26541;DHT22;14206;50.202;10.948;2022-12-11T17:05:23;0.70;80.90
26541;DHT22;14206;50.202;10.948;2022-12-11T17:07:50;0.70;81.00
26541;DHT22;14206;50.202;10.948;2022-12-11T17:10:17;0.70;81.40
26541;DHT22;14206;50.202;10.948;2022-12-11T17:12:44;0.80;81.20
26541;DHT22;14206;50.202;10.948;2022-12-11T17:15:11;0.80;81.40
26541;DHT22;14206;50.202;10.948;2022-12-11T17:17:38;0.80;81.50
26541;DHT22;14206;50.202;10.948;2022-12-11T17:20:05;0.80;82.60
26541;DHT22;14206;50.202;10.948;2022-12-11T17:22:32;0.70;82.20
26541;DHT22;14206;50.202;10.948;2022-12-11T17:25:00;0.60;82.20
26541;DHT22;14206;50.202;10.948;2022-12-11T17:27:27;0.50;81.60